sensor_id;sensor_type;location;lat;lon;timestamp;pressure;altitude;pressure_sealevel;temperature;humidity
2681;BME280;1350;42.134;24.708;2023-04-08T00:00:28;99639.78;;;9.14;68.35
2681;BME280;1350;42.134;24.708;2023-04-08T00:02:56;99640.53;;;9.18;67.87
2681;BME280;1350;42.134;24.708;2023-04-08T00:05:23;99648.22;;;9.04;68.21
2681;BME280;1350;42.134;24.708;2023-04-08T00:07:50;99646.81;;;8.95;68.25
2681;BME280;1350;42.134;24.708;2023-04-08T00:10:17;99647.69;;;8.96;68.50
2681;BME280;1350;42.134;24.708;2023-04-08T00:12:44;99645.41;;;8.88;69.80
2681;BME280;1350;42.134;24.708;2023-04-08T00:15:11;99642.84;;;8.67;70.55
2681;BME280;1350;42.134;24.708;2023-04-08T00:17:38;99648.06;;;8.68;71.32
2681;BME280;1350;42.134;24.708;2023-04-08T00:20:07;99641.91;;;8.68;71.10
2681;BME280;1350;42.134;24.708;2023-04-08T00:22:34;99643.50;;;8.72;70.43
2681;BME280;1350;42.134;24.708;2023-04-08T00:25:01;99652.59;;;8.85;70.51
2681;BME280;1350;42.134;24.708;2023-04-08T00:27:31;99647.09;;;8.89;69.86
2681;BME280;1350;42.134;24.708;2023-04-08T00:29:57;99649.16;;;8.83;69.62
2681;BME280;1350;42.134;24.708;2023-04-08T00:32:26;99642.09;;;8.83;70.70
2681;BME280;1350;42.134;24.708;2023-04-08T00:34:53;99649.75;;;8.69;71.54
2681;BME280;1350;42.134;24.708;2023-04-08T00:37:22;99654.78;;;8.55;72.75
2681;BME280;1350;42.134;24.708;2023-04-08T00:39:49;99646.22;;;8.70;72.67
2681;BME280;1350;42.134;24.708;2023-04-08T00:42:18;99654.28;;;8.67;72.93
2681;BME280;1350;42.134;24.708;2023-04-08T00:44:45;99655.13;;;8.68;73.30
2681;BME280;1350;42.134;24.708;2023-04-08T00:47:12;99657.00;;;8.66;73.24
2681;BME280;1350;42.134;24.708;2023-04-08T00:49:40;99660.94;;;8.76;73.08
2681;BME280;1350;42.134;24.708;2023-04-08T00:52:07;99659.28;;;8.73;73.33
2681;BME280;1350;42.134;24.708;2023-04-08T00:54:35;99656.66;;;8.73;74.78
2681;BME280;1350;42.134;24.708;2023-04-08T00:57:02;99661.19;;;8.70;76.50
2681;BME280;1350;42.134;24.708;2023-04-08T00:59:30;99663.97;;;8.67;77.75
2681;BME280;1350;42.134;24.708;2023-04-08T01:02:02;99655.31;;;8.63;79.28
2681;BME280;1350;42.134;24.708;2023-04-08T01:04:39;99664.84;;;8.67;79.80
2681;BME280;1350;42.134;24.708;2023-04-08T01:07:14;99681.41;;;8.71;82.10
2681;BME280;1350;42.134;24.708;2023-04-08T01:09:46;99671.91;;;8.67;84.93
2681;BME280;1350;42.134;24.708;2023-04-08T01:12:19;99676.13;;;8.50;88.98
2681;BME280;1350;42.134;24.708;2023-04-08T01:14:47;99676.13;;;8.50;92.28
2681;BME280;1350;42.134;24.708;2023-04-08T01:17:18;99678.00;;;8.48;97.23
2681;BME280;1350;42.134;24.708;2023-04-08T01:19:47;99678.91;;;8.47;100.00
2681;BME280;1350;42.134;24.708;2023-04-08T01:22:23;99676.44;;;8.43;100.00
2681;BME280;1350;42.134;24.708;2023-04-08T01:24:58;99670.69;;;8.33;100.00
2681;BME280;1350;42.134;24.708;2023-04-08T01:27:30;99670.56;;;8.36;100.00
2681;BME280;1350;42.134;24.708;2023-04-08T01:29:58;99678.06;;;8.47;100.00
2681;BME280;1350;42.134;24.708;2023-04-08T01:32:26;99664.78;;;8.48;100.00
2681;BME280;1350;42.134;24.708;2023-04-08T01:34:55;99669.19;;;8.48;100.00
2681;BME280;1350;42.134;24.708;2023-04-08T01:37:24;99677.03;;;8.29;100.00
2681;BME280;1350;42.134;24.708;2023-04-08T01:39:53;99672.03;;;8.43;100.00
2681;BME280;1350;42.134;24.708;2023-04-08T01:42:21;99674.94;;;8.37;100.00
2681;BME280;1350;42.134;24.708;2023-04-08T01:44:51;99676.63;;;8.38;100.00
2681;BME280;1350;42.134;24.708;2023-04-08T01:47:19;99676.78;;;8.35;100.00
2681;BME280;1350;42.134;24.708;2023-04-08T01:49:46;99682.25;;;8.31;100.00
2681;BME280;1350;42.134;24.708;2023-04-08T01:52:13;99685.25;;;8.22;100.00
2681;BME280;1350;42.134;24.708;2023-04-08T01:54:42;99684.50;;;8.18;100.00
2681;BME280;1350;42.134;24.708;2023-04-08T01:57:11;99683.31;;;8.27;100.00
2681;BME280;1350;42.134;24.708;2023-04-08T01:59:41;99692.75;;;8.32;100.00
2681;BME280;1350;42.134;24.708;2023-04-08T02:02:10;99698.44;;;8.22;100.00
2681;BME280;1350;42.134;24.708;2023-04-08T02:04:37;99696.19;;;8.34;100.00
2681;BME280;1350;42.134;24.708;2023-04-08T02:07:04;99697.81;;;8.15;100.00
2681;BME280;1350;42.134;24.708;2023-04-08T02:09:31;99692.06;;;8.06;100.00
2681;BME280;1350;42.134;24.708;2023-04-08T02:11:58;99694.75;;;8.04;100.00
2681;BME280;1350;42.134;24.708;2023-04-08T02:14:26;99699.00;;;8.08;100.00
2681;BME280;1350;42.134;24.708;2023-04-08T02:16:54;99695.63;;;8.05;100.00
2681;BME280;1350;42.134;24.708;2023-04-08T02:19:28;99699.78;;;8.10;100.00
2681;BME280;1350;42.134;24.708;2023-04-08T02:22:00;99705.44;;;8.01;100.00
2681;BME280;1350;42.134;24.708;2023-04-08T02:24:28;99705.25;;;8.06;100.00
2681;BME280;1350;42.134;24.708;2023-04-08T02:26:55;99704.94;;;8.13;100.00
2681;BME280;1350;42.134;24.708;2023-04-08T02:29:23;99695.38;;;8.11;100.00
2681;BME280;1350;42.134;24.708;2023-04-08T02:31:52;99701.22;;;8.19;100.00
2681;BME280;1350;42.134;24.708;2023-04-08T02:34:20;99697.22;;;8.09;100.00
2681;BME280;1350;42.134;24.708;2023-04-08T02:36:49;99703.22;;;8.12;100.00
2681;BME280;1350;42.134;24.708;2023-04-08T02:39:16;99699.13;;;8.05;100.00
2681;BME280;1350;42.134;24.708;2023-04-08T02:41:43;99702.31;;;8.13;100.00
2681;BME280;1350;42.134;24.708;2023-04-08T02:44:09;99699.91;;;8.07;100.00
2681;BME280;1350;42.134;24.708;2023-04-08T02:46:36;99701.09;;;8.00;100.00
2681;BME280;1350;42.134;24.708;2023-04-08T02:49:03;99697.97;;;8.12;100.00
2681;BME280;1350;42.134;24.708;2023-04-08T02:51:29;99697.22;;;8.09;100.00
2681;BME280;1350;42.134;24.708;2023-04-08T02:53:58;99697.41;;;8.04;100.00
2681;BME280;1350;42.134;24.708;2023-04-08T02:56:25;99705.94;;;8.11;100.00
2681;BME280;1350;42.134;24.708;2023-04-08T02:58:52;99714.09;;;8.05;100.00
2681;BME280;1350;42.134;24.708;2023-04-08T03:01:19;99722.66;;;8.11;100.00
2681;BME280;1350;42.134;24.708;2023-04-08T03:03:46;99715.44;;;8.15;100.00
2681;BME280;1350;42.134;24.708;2023-04-08T03:06:13;99718.41;;;8.29;100.00
2681;BME280;1350;42.134;24.708;2023-04-08T03:08:39;99726.41;;;8.27;100.00
2681;BME280;1350;42.134;24.708;2023-04-08T03:11:07;99728.91;;;8.30;100.00
2681;BME280;1350;42.134;24.708;2023-04-08T03:13:34;99728.16;;;8.28;100.00
2681;BME280;1350;42.134;24.708;2023-04-08T03:16:01;99724.19;;;8.38;100.00
2681;BME280;1350;42.134;24.708;2023-04-08T03:18:28;99728.03;;;8.31;100.00
2681;BME280;1350;42.134;24.708;2023-04-08T03:20:54;99721.00;;;8.30;100.00
2681;BME280;1350;42.134;24.708;2023-04-08T03:23:21;99731.69;;;8.27;100.00
2681;BME280;1350;42.134;24.708;2023-04-08T03:25:48;99726.81;;;8.17;100.00
2681;BME280;1350;42.134;24.708;2023-04-08T03:28:16;99725.09;;;8.16;100.00
2681;BME280;1350;42.134;24.708;2023-04-08T03:30:43;99720.91;;;8.10;100.00
2681;BME280;1350;42.134;24.708;2023-04-08T03:33:09;99714.84;;;8.08;100.00
2681;BME280;1350;42.134;24.708;2023-04-08T03:35:36;99732.34;;;8.11;100.00
2681;BME280;1350;42.134;24.708;2023-04-08T03:38:03;99727.13;;;8.09;100.00
2681;BME280;1350;42.134;24.708;2023-04-08T03:40:30;99724.91;;;8.20;100.00
2681;BME280;1350;42.134;24.708;2023-04-08T03:42:56;99731.41;;;8.12;100.00
2681;BME280;1350;42.134;24.708;2023-04-08T03:45:25;99736.81;;;8.09;100.00
2681;BME280;1350;42.134;24.708;2023-04-08T03:47:51;99730.81;;;8.05;100.00
2681;BME280;1350;42.134;24.708;2023-04-08T03:50:18;99730.13;;;8.00;100.00
2681;BME280;1350;42.134;24.708;2023-04-08T03:52:45;99739.19;;;7.93;100.00
2681;BME280;1350;42.134;24.708;2023-04-08T03:55:12;99736.16;;;8.04;100.00
2681;BME280;1350;42.134;24.708;2023-04-08T03:57:38;99740.56;;;8.03;100.00
2681;BME280;1350;42.134;24.708;2023-04-08T04:00:06;99748.69;;;7.99;100.00
2681;BME280;1350;42.134;24.708;2023-04-08T04:02:34;99746.34;;;7.91;100.00
2681;BME280;1350;42.134;24.708;2023-04-08T04:05:01;99748.84;;;7.94;100.00
2681;BME280;1350;42.134;24.708;2023-04-08T04:07:28;99748.91;;;7.93;100.00
2681;BME280;1350;42.134;24.708;2023-04-08T04:09:55;99740.94;;;7.94;100.00
2681;BME280;1350;42.134;24.708;2023-04-08T04:12:21;99741.91;;;7.92;100.00
2681;BME280;1350;42.134;24.708;2023-04-08T04:14:48;99752.84;;;8.04;100.00
2681;BME280;1350;42.134;24.708;2023-04-08T04:17:15;99752.84;;;8.04;100.00
2681;BME280;1350;42.134;24.708;2023-04-08T04:19:43;99758.59;;;7.92;100.00
2681;BME280;1350;42.134;24.708;2023-04-08T04:22:10;99753.28;;;7.94;100.00
2681;BME280;1350;42.134;24.708;2023-04-08T04:24:37;99761.19;;;7.94;100.00
2681;BME280;1350;42.134;24.708;2023-04-08T04:27:03;99762.19;;;7.91;100.00
2681;BME280;1350;42.134;24.708;2023-04-08T04:29:30;99758.53;;;7.94;100.00
2681;BME280;1350;42.134;24.708;2023-04-08T04:31:57;99755.16;;;7.90;100.00
2681;BME280;1350;42.134;24.708;2023-04-08T04:34:24;99752.41;;;7.93;100.00
2681;BME280;1350;42.134;24.708;2023-04-08T04:36:52;99757.97;;;7.86;100.00
2681;BME280;1350;42.134;24.708;2023-04-08T04:39:18;99754.88;;;7.98;100.00
2681;BME280;1350;42.134;24.708;2023-04-08T04:41:45;99757.59;;;7.96;100.00
2681;BME280;1350;42.134;24.708;2023-04-08T04:44:13;99760.88;;;8.01;100.00
2681;BME280;1350;42.134;24.708;2023-04-08T04:46:40;99758.00;;;8.07;100.00
2681;BME280;1350;42.134;24.708;2023-04-08T04:49:07;99761.22;;;8.15;100.00
2681;BME280;1350;42.134;24.708;2023-04-08T04:51:33;99768.03;;;8.21;100.00
2681;BME280;1350;42.134;24.708;2023-04-08T04:54:01;99759.72;;;8.31;100.00
2681;BME280;1350;42.134;24.708;2023-04-08T04:56:28;99757.56;;;8.41;100.00
2681;BME280;1350;42.134;24.708;2023-04-08T04:58:55;99761.22;;;8.15;100.00
2681;BME280;1350;42.134;24.708;2023-04-08T05:01:22;99767.09;;;8.23;100.00
2681;BME280;1350;42.134;24.708;2023-04-08T05:03:48;99760.72;;;8.49;100.00
2681;BME280;1350;42.134;24.708;2023-04-08T05:06:15;99762.81;;;8.63;100.00
2681;BME280;1350;42.134;24.708;2023-04-08T05:08:42;99765.25;;;8.89;100.00
2681;BME280;1350;42.134;24.708;2023-04-08T05:11:10;99771.50;;;8.86;100.00
2681;BME280;1350;42.134;24.708;2023-04-08T05:13:37;99771.16;;;8.74;100.00
2681;BME280;1350;42.134;24.708;2023-04-08T05:16:04;99781.31;;;8.63;100.00
2681;BME280;1350;42.134;24.708;2023-04-08T05:18:31;99783.81;;;8.87;100.00
2681;BME280;1350;42.134;24.708;2023-04-08T05:20:57;99782.03;;;9.08;100.00
2681;BME280;1350;42.134;24.708;2023-04-08T05:23:24;99784.38;;;8.94;100.00
2681;BME280;1350;42.134;24.708;2023-04-08T05:25:51;99780.78;;;8.96;100.00
2681;BME280;1350;42.134;24.708;2023-04-08T05:28:19;99782.88;;;8.88;100.00
2681;BME280;1350;42.134;24.708;2023-04-08T05:30:48;99791.03;;;9.04;100.00
2681;BME280;1350;42.134;24.708;2023-04-08T05:33:14;99784.72;;;9.06;100.00
2681;BME280;1350;42.134;24.708;2023-04-08T05:35:41;99790.50;;;9.16;100.00
2681;BME280;1350;42.134;24.708;2023-04-08T05:38:08;99792.28;;;9.15;100.00
2681;BME280;1350;42.134;24.708;2023-04-08T05:40:35;99791.03;;;9.24;100.00
2681;BME280;1350;42.134;24.708;2023-04-08T05:43:01;99792.00;;;9.21;100.00
2681;BME280;1350;42.134;24.708;2023-04-08T05:45:30;99796.88;;;9.30;100.00
2681;BME280;1350;42.134;24.708;2023-04-08T05:47:56;99791.06;;;9.62;100.00
2681;BME280;1350;42.134;24.708;2023-04-08T05:50:23;99792.28;;;9.74;100.00
2681;BME280;1350;42.134;24.708;2023-04-08T05:52:50;99797.66;;;9.91;100.00
2681;BME280;1350;42.134;24.708;2023-04-08T05:55:16;99792.66;;;10.03;100.00
2681;BME280;1350;42.134;24.708;2023-04-08T05:57:43;99795.22;;;9.86;100.00
2681;BME280;1350;42.134;24.708;2023-04-08T06:00:10;99798.88;;;9.84;100.00
2681;BME280;1350;42.134;24.708;2023-04-08T06:02:38;99799.50;;;9.89;100.00
2681;BME280;1350;42.134;24.708;2023-04-08T06:05:06;99789.41;;;9.78;100.00
2681;BME280;1350;42.134;24.708;2023-04-08T06:07:33;99800.38;;;9.89;100.00
2681;BME280;1350;42.134;24.708;2023-04-08T06:10:00;99788.81;;;9.72;100.00
2681;BME280;1350;42.134;24.708;2023-04-08T06:12:27;99787.22;;;9.88;100.00
2681;BME280;1350;42.134;24.708;2023-04-08T06:14:54;99797.31;;;10.36;100.00
2681;BME280;1350;42.134;24.708;2023-04-08T06:17:21;99798.34;;;10.50;100.00
2681;BME280;1350;42.134;24.708;2023-04-08T06:19:49;99805.78;;;10.25;100.00
2681;BME280;1350;42.134;24.708;2023-04-08T06:22:16;99799.25;;;10.13;100.00
2681;BME280;1350;42.134;24.708;2023-04-08T06:24:42;99802.38;;;10.59;100.00
2681;BME280;1350;42.134;24.708;2023-04-08T06:27:09;99796.63;;;10.85;100.00
2681;BME280;1350;42.134;24.708;2023-04-08T06:29:36;99797.13;;;11.10;100.00
2681;BME280;1350;42.134;24.708;2023-04-08T06:32:03;99792.50;;;11.13;100.00
2681;BME280;1350;42.134;24.708;2023-04-08T06:34:30;99796.56;;;11.03;100.00
2681;BME280;1350;42.134;24.708;2023-04-08T06:36:58;99800.28;;;11.33;100.00
2681;BME280;1350;42.134;24.708;2023-04-08T06:39:25;99794.13;;;11.82;100.00
2681;BME280;1350;42.134;24.708;2023-04-08T06:41:54;99788.53;;;12.20;100.00
2681;BME280;1350;42.134;24.708;2023-04-08T06:44:22;99794.28;;;12.43;100.00
2681;BME280;1350;42.134;24.708;2023-04-08T06:46:49;99793.34;;;11.98;100.00
2681;BME280;1350;42.134;24.708;2023-04-08T06:49:16;99788.63;;;12.34;100.00
2681;BME280;1350;42.134;24.708;2023-04-08T06:51:43;99792.50;;;12.28;100.00
2681;BME280;1350;42.134;24.708;2023-04-08T06:54:11;99782.63;;;12.91;100.00
2681;BME280;1350;42.134;24.708;2023-04-08T06:56:37;99787.84;;;13.37;96.07
2681;BME280;1350;42.134;24.708;2023-04-08T06:59:04;99788.53;;;13.97;91.52
2681;BME280;1350;42.134;24.708;2023-04-08T07:01:31;99793.78;;;13.85;90.19
2681;BME280;1350;42.134;24.708;2023-04-08T07:03:57;99784.94;;;13.56;90.21
2681;BME280;1350;42.134;24.708;2023-04-08T07:06:26;99780.16;;;13.75;90.01
2681;BME280;1350;42.134;24.708;2023-04-08T07:08:53;99783.00;;;13.86;89.09
2681;BME280;1350;42.134;24.708;2023-04-08T07:11:21;99789.72;;;14.48;86.73
2681;BME280;1350;42.134;24.708;2023-04-08T07:13:48;99787.72;;;15.17;81.22
2681;BME280;1350;42.134;24.708;2023-04-08T07:16:15;99778.69;;;15.82;76.13
2681;BME280;1350;42.134;24.708;2023-04-08T07:18:41;99788.97;;;15.51;72.48
2681;BME280;1350;42.134;24.708;2023-04-08T07:21:08;99787.22;;;16.25;71.22
2681;BME280;1350;42.134;24.708;2023-04-08T07:23:35;99782.00;;;16.83;66.84
2681;BME280;1350;42.134;24.708;2023-04-08T07:26:02;99792.63;;;16.84;63.59
2681;BME280;1350;42.134;24.708;2023-04-08T07:28:31;99793.03;;;15.56;66.23
2681;BME280;1350;42.134;24.708;2023-04-08T07:31:10;99792.06;;;15.95;65.80
2681;BME280;1350;42.134;24.708;2023-04-08T07:33:37;99787.13;;;16.14;65.38
2681;BME280;1350;42.134;24.708;2023-04-08T07:36:04;99781.81;;;16.50;64.59
2681;BME280;1350;42.134;24.708;2023-04-08T07:38:31;99782.88;;;15.99;63.96
2681;BME280;1350;42.134;24.708;2023-04-08T07:40:58;99790.84;;;15.23;65.62
2681;BME280;1350;42.134;24.708;2023-04-08T07:43:25;99792.81;;;15.97;66.80
2681;BME280;1350;42.134;24.708;2023-04-08T07:45:53;99792.72;;;15.61;65.15
2681;BME280;1350;42.134;24.708;2023-04-08T07:48:20;99788.88;;;15.52;66.78
2681;BME280;1350;42.134;24.708;2023-04-08T07:50:46;99790.47;;;15.03;67.05
2681;BME280;1350;42.134;24.708;2023-04-08T07:53:13;99791.78;;;15.62;66.02
2681;BME280;1350;42.134;24.708;2023-04-08T07:55:47;99789.19;;;14.69;68.28
2681;BME280;1350;42.134;24.708;2023-04-08T07:58:14;99788.72;;;13.66;73.14
2681;BME280;1350;42.134;24.708;2023-04-08T08:00:41;99791.00;;;14.14;74.84
2681;BME280;1350;42.134;24.708;2023-04-08T08:03:09;99795.81;;;14.76;73.18
2681;BME280;1350;42.134;24.708;2023-04-08T08:05:36;99798.84;;;14.84;70.44
2681;BME280;1350;42.134;24.708;2023-04-08T08:08:03;99801.69;;;14.28;73.38
2681;BME280;1350;42.134;24.708;2023-04-08T08:10:32;99798.22;;;14.67;71.80
2681;BME280;1350;42.134;24.708;2023-04-08T08:12:58;99792.84;;;15.47;67.59
2681;BME280;1350;42.134;24.708;2023-04-08T08:15:25;99798.19;;;15.97;65.38
2681;BME280;1350;42.134;24.708;2023-04-08T08:17:52;99801.50;;;15.63;64.80
2681;BME280;1350;42.134;24.708;2023-04-08T08:20:20;99792.50;;;15.39;66.23
2681;BME280;1350;42.134;24.708;2023-04-08T08:22:46;99797.31;;;15.07;67.90
2681;BME280;1350;42.134;24.708;2023-04-08T08:25:13;99798.72;;;15.12;68.35
2681;BME280;1350;42.134;24.708;2023-04-08T08:27:40;99793.72;;;14.41;68.29
2681;BME280;1350;42.134;24.708;2023-04-08T08:30:08;99787.66;;;15.31;66.92
2681;BME280;1350;42.134;24.708;2023-04-08T08:32:35;99776.81;;;15.47;65.61
2681;BME280;1350;42.134;24.708;2023-04-08T08:35:02;99788.09;;;16.13;64.99
2681;BME280;1350;42.134;24.708;2023-04-08T08:37:30;99788.56;;;15.94;63.26
2681;BME280;1350;42.134;24.708;2023-04-08T08:39:56;99790.38;;;15.44;64.44
2681;BME280;1350;42.134;24.708;2023-04-08T08:42:24;99784.06;;;15.57;63.49
2681;BME280;1350;42.134;24.708;2023-04-08T08:44:51;99782.03;;;15.73;63.06
2681;BME280;1350;42.134;24.708;2023-04-08T08:47:18;99785.53;;;16.11;62.03
2681;BME280;1350;42.134;24.708;2023-04-08T08:49:46;99781.50;;;15.68;62.85
2681;BME280;1350;42.134;24.708;2023-04-08T08:52:15;99782.38;;;16.30;61.52
2681;BME280;1350;42.134;24.708;2023-04-08T08:54:43;99775.91;;;16.57;61.57
2681;BME280;1350;42.134;24.708;2023-04-08T08:57:17;99779.69;;;15.44;60.18
2681;BME280;1350;42.134;24.708;2023-04-08T08:59:45;99788.78;;;15.79;60.07
2681;BME280;1350;42.134;24.708;2023-04-08T09:02:23;99775.50;;;15.40;60.58
2681;BME280;1350;42.134;24.708;2023-04-08T09:04:55;99775.06;;;15.96;60.72
2681;BME280;1350;42.134;24.708;2023-04-08T09:07:24;99774.81;;;15.36;62.49
2681;BME280;1350;42.134;24.708;2023-04-08T09:09:53;99782.75;;;15.38;62.98
2681;BME280;1350;42.134;24.708;2023-04-08T09:12:21;99781.47;;;14.65;63.48
2681;BME280;1350;42.134;24.708;2023-04-08T09:14:48;99780.31;;;14.69;63.07
2681;BME280;1350;42.134;24.708;2023-04-08T09:17:15;99786.78;;;14.38;65.88
2681;BME280;1350;42.134;24.708;2023-04-08T09:20:06;99778.53;;;14.29;67.48
2681;BME280;1350;42.134;24.708;2023-04-08T09:22:57;99780.50;;;14.39;67.56
2681;BME280;1350;42.134;24.708;2023-04-08T09:25:27;99776.53;;;14.04;67.18
2681;BME280;1350;42.134;24.708;2023-04-08T09:27:55;99784.72;;;14.15;67.98
2681;BME280;1350;42.134;24.708;2023-04-08T09:30:23;99783.75;;;14.30;68.69
2681;BME280;1350;42.134;24.708;2023-04-08T09:32:51;99778.78;;;14.91;66.62
2681;BME280;1350;42.134;24.708;2023-04-08T09:35:19;99779.75;;;15.30;63.43
2681;BME280;1350;42.134;24.708;2023-04-08T09:37:48;99780.09;;;15.38;61.22
2681;BME280;1350;42.134;24.708;2023-04-08T09:40:16;99780.63;;;16.41;58.53
2681;BME280;1350;42.134;24.708;2023-04-08T09:42:48;99767.75;;;16.23;58.45
2681;BME280;1350;42.134;24.708;2023-04-08T09:45:17;99781.44;;;16.31;58.04
2681;BME280;1350;42.134;24.708;2023-04-08T09:47:54;99773.97;;;16.59;57.71
2681;BME280;1350;42.134;24.708;2023-04-08T09:50:25;99776.06;;;16.67;57.34
2681;BME280;1350;42.134;24.708;2023-04-08T09:52:57;99777.16;;;16.64;57.31
2681;BME280;1350;42.134;24.708;2023-04-08T09:55:26;99772.06;;;16.96;56.22
2681;BME280;1350;42.134;24.708;2023-04-08T09:58:00;99774.88;;;16.47;57.95
2681;BME280;1350;42.134;24.708;2023-04-08T10:00:31;99782.75;;;15.38;59.68
2681;BME280;1350;42.134;24.708;2023-04-08T10:03:03;99773.16;;;15.73;59.79
2681;BME280;1350;42.134;24.708;2023-04-08T10:05:35;99775.09;;;15.83;58.50
2681;BME280;1350;42.134;24.708;2023-04-08T10:08:04;99769.97;;;16.29;58.00
2681;BME280;1350;42.134;24.708;2023-04-08T10:10:31;99773.28;;;16.92;56.27
2681;BME280;1350;42.134;24.708;2023-04-08T10:13:00;99765.25;;;16.92;55.66
2681;BME280;1350;42.134;24.708;2023-04-08T10:15:28;99779.22;;;16.12;56.40
2681;BME280;1350;42.134;24.708;2023-04-08T10:18:30;99780.59;;;16.18;56.27
2681;BME280;1350;42.134;24.708;2023-04-08T10:20:58;99767.78;;;15.98;57.36
2681;BME280;1350;42.134;24.708;2023-04-08T10:23:53;99764.13;;;16.83;56.54
2681;BME280;1350;42.134;24.708;2023-04-08T10:26:33;99762.16;;;17.44;54.36
2681;BME280;1350;42.134;24.708;2023-04-08T10:32:04;99763.47;;;16.20;57.72
2681;BME280;1350;42.134;24.708;2023-04-08T10:34:30;99757.19;;;16.57;57.30
2681;BME280;1350;42.134;24.708;2023-04-08T10:36:57;99753.03;;;16.05;58.82
2681;BME280;1350;42.134;24.708;2023-04-08T10:39:26;99742.00;;;16.69;60.07
2681;BME280;1350;42.134;24.708;2023-04-08T10:41:53;99736.25;;;16.86;58.37
2681;BME280;1350;42.134;24.708;2023-04-08T10:44:21;99734.38;;;16.52;59.59
2681;BME280;1350;42.134;24.708;2023-04-08T10:46:49;99737.88;;;15.80;59.78
2681;BME280;1350;42.134;24.708;2023-04-08T10:49:18;99734.00;;;15.72;60.87
2681;BME280;1350;42.134;24.708;2023-04-08T10:51:46;99718.75;;;15.49;61.47
2681;BME280;1350;42.134;24.708;2023-04-08T10:54:14;99719.50;;;15.63;61.47
2681;BME280;1350;42.134;24.708;2023-04-08T10:56:46;99723.22;;;15.73;60.77
2681;BME280;1350;42.134;24.708;2023-04-08T10:59:14;99719.06;;;15.57;61.15
2681;BME280;1350;42.134;24.708;2023-04-08T11:01:43;99718.19;;;15.81;61.29
2681;BME280;1350;42.134;24.708;2023-04-08T11:04:11;99723.38;;;16.08;61.41
2681;BME280;1350;42.134;24.708;2023-04-08T11:06:41;99720.72;;;15.95;61.18
2681;BME280;1350;42.134;24.708;2023-04-08T11:09:08;99706.88;;;16.14;60.73
2681;BME280;1350;42.134;24.708;2023-04-08T11:11:35;99713.78;;;16.29;59.86
2681;BME280;1350;42.134;24.708;2023-04-08T11:14:03;99711.03;;;16.18;59.52
2681;BME280;1350;42.134;24.708;2023-04-08T11:16:29;99715.69;;;16.27;59.02
2681;BME280;1350;42.134;24.708;2023-04-08T11:18:56;99704.00;;;16.40;59.17
2681;BME280;1350;42.134;24.708;2023-04-08T11:21:24;99696.50;;;16.33;59.13
2681;BME280;1350;42.134;24.708;2023-04-08T11:23:55;99705.28;;;16.35;59.29
2681;BME280;1350;42.134;24.708;2023-04-08T11:26:22;99693.00;;;16.32;59.23
2681;BME280;1350;42.134;24.708;2023-04-08T11:28:49;99684.72;;;15.76;60.06
2681;BME280;1350;42.134;24.708;2023-04-08T11:31:17;99680.88;;;15.67;60.17
2681;BME280;1350;42.134;24.708;2023-04-08T11:33:45;99681.59;;;15.82;60.19
2681;BME280;1350;42.134;24.708;2023-04-08T11:36:13;99684.94;;;16.09;59.67
2681;BME280;1350;42.134;24.708;2023-04-08T11:38:40;99677.22;;;16.17;59.50
2681;BME280;1350;42.134;24.708;2023-04-08T11:41:09;99671.63;;;16.20;59.37
2681;BME280;1350;42.134;24.708;2023-04-08T11:43:36;99667.06;;;16.33;58.48
2681;BME280;1350;42.134;24.708;2023-04-08T11:46:08;99666.88;;;16.36;58.00
2681;BME280;1350;42.134;24.708;2023-04-08T11:48:36;99660.59;;;16.71;57.85
2681;BME280;1350;42.134;24.708;2023-04-08T11:51:04;99665.16;;;16.82;57.08
2681;BME280;1350;42.134;24.708;2023-04-08T11:53:34;99659.53;;;16.74;57.02
2681;BME280;1350;42.134;24.708;2023-04-08T11:56:19;99666.75;;;16.14;58.47
2681;BME280;1350;42.134;24.708;2023-04-08T11:58:47;99660.50;;;15.41;60.01
2681;BME280;1350;42.134;24.708;2023-04-08T12:01:14;99655.66;;;15.34;60.51
2681;BME280;1350;42.134;24.708;2023-04-08T12:04:01;99648.31;;;15.86;61.29
2681;BME280;1350;42.134;24.708;2023-04-08T12:06:28;99654.72;;;16.19;59.50
2681;BME280;1350;42.134;24.708;2023-04-08T12:08:56;99642.50;;;16.28;59.51
2681;BME280;1350;42.134;24.708;2023-04-08T12:11:25;99648.97;;;16.36;58.88
2681;BME280;1350;42.134;24.708;2023-04-08T12:13:52;99643.09;;;16.31;59.20
2681;BME280;1350;42.134;24.708;2023-04-08T12:16:18;99629.06;;;16.40;59.27
2681;BME280;1350;42.134;24.708;2023-04-08T12:18:45;99624.97;;;16.47;59.76
2681;BME280;1350;42.134;24.708;2023-04-08T12:21:12;99629.69;;;15.97;60.29
2681;BME280;1350;42.134;24.708;2023-04-08T12:23:39;99622.78;;;15.82;61.18
2681;BME280;1350;42.134;24.708;2023-04-08T12:26:06;99630.69;;;16.07;60.41
2681;BME280;1350;42.134;24.708;2023-04-08T12:28:34;99626.53;;;16.03;60.64
2681;BME280;1350;42.134;24.708;2023-04-08T12:31:02;99615.09;;;16.24;60.96
2681;BME280;1350;42.134;24.708;2023-04-08T12:33:29;99625.13;;;16.57;59.66
2681;BME280;1350;42.134;24.708;2023-04-08T12:35:56;99620.28;;;16.38;59.66
2681;BME280;1350;42.134;24.708;2023-04-08T12:38:23;99618.63;;;16.83;58.96
2681;BME280;1350;42.134;24.708;2023-04-08T12:40:50;99620.53;;;17.16;58.46
2681;BME280;1350;42.134;24.708;2023-04-08T12:43:17;99614.03;;;17.07;58.85
2681;BME280;1350;42.134;24.708;2023-04-08T12:45:45;99608.69;;;17.07;58.78
2681;BME280;1350;42.134;24.708;2023-04-08T12:48:13;99608.03;;;16.81;58.98
2681;BME280;1350;42.134;24.708;2023-04-08T12:50:39;99610.22;;;16.76;59.46
2681;BME280;1350;42.134;24.708;2023-04-08T12:53:06;99604.66;;;16.56;59.29
2681;BME280;1350;42.134;24.708;2023-04-08T12:55:33;99607.03;;;16.60;59.44
2681;BME280;1350;42.134;24.708;2023-04-08T12:57:59;99599.22;;;16.68;59.43
2681;BME280;1350;42.134;24.708;2023-04-08T13:00:26;99608.41;;;16.77;59.71
2681;BME280;1350;42.134;24.708;2023-04-08T13:02:54;99598.19;;;16.93;59.25
2681;BME280;1350;42.134;24.708;2023-04-08T13:05:21;99598.59;;;16.30;59.58
2681;BME280;1350;42.134;24.708;2023-04-08T13:07:48;99599.28;;;15.74;61.29
2681;BME280;1350;42.134;24.708;2023-04-08T13:10:15;99589.16;;;15.67;62.69
2681;BME280;1350;42.134;24.708;2023-04-08T13:12:41;99582.13;;;16.13;62.14
2681;BME280;1350;42.134;24.708;2023-04-08T13:15:09;99585.28;;;16.18;61.09
2681;BME280;1350;42.134;24.708;2023-04-08T13:17:36;99582.66;;;16.05;60.95
2681;BME280;1350;42.134;24.708;2023-04-08T13:20:06;99588.88;;;16.06;61.02